createdAt,value
2022-09-30T00:23:50.412Z,8.00
2022-09-30T00:54:06.356Z,8.20
2022-09-30T01:24:47.111Z,8.40
2022-09-30T01:55:05.272Z,8.80
2022-09-30T02:25:20.842Z,9.10
2022-09-30T02:55:44.149Z,9.50
2022-09-30T03:26:01.309Z,9.50
2022-09-30T03:56:13.747Z,9.50
2022-09-30T04:26:29.430Z,9.60
2022-09-30T04:56:40.341Z,9.60
2022-09-30T05:26:49.181Z,9.80
2022-09-30T05:57:06.679Z,9.90
2022-09-30T06:27:15.921Z,10.00
2022-09-30T06:57:27.052Z,10.10
2022-09-30T07:27:39.632Z,10.50
2022-09-30T07:57:54.596Z,10.60
2022-09-30T08:28:03.573Z,11.50
2022-09-30T08:58:29.862Z,11.00
2022-09-30T09:28:44.681Z,11.20
2022-09-30T09:59:22.121Z,11.70
2022-09-30T10:29:34.314Z,11.90
2022-09-30T10:59:52.091Z,12.10
2022-09-30T11:30:12.048Z,12.50
2022-09-30T12:00:22.508Z,12.70
2022-09-30T12:30:35.603Z,12.70
2022-09-30T13:01:09.643Z,13.30
2022-09-30T13:31:20.447Z,13.40
2022-09-30T14:01:48.440Z,13.10
2022-09-30T14:32:02.492Z,12.60
2022-09-30T15:02:23.544Z,12.80
2022-09-30T15:32:37.993Z,12.60
2022-09-30T16:02:58.699Z,12.10
2022-09-30T16:33:18.474Z,11.80
2022-09-30T17:03:34.822Z,11.70
2022-09-30T17:33:45.001Z,11.50
2022-09-30T18:04:01.851Z,11.40
2022-09-30T18:34:12.787Z,11.30
2022-09-30T19:04:35.151Z,11.20
2022-09-30T19:35:05.429Z,11.00
2022-09-30T20:05:23.991Z,11.00
2022-09-30T20:35:33.655Z,11.00
2022-09-30T21:05:42.801Z,11.00
2022-09-30T21:36:03.173Z,11.00
2022-09-30T22:06:14.130Z,11.10
2022-09-30T22:36:36.136Z,11.00
2022-09-30T23:06:45.465Z,11.00
2022-09-30T23:36:56.697Z,11.00
